sensor_id;sensor_type;location;lat;lon;timestamp;temperature;humidity
17442;DHT22;8838;50.144;8.176;2023-09-19T00:02:26;16.00;99.90
17442;DHT22;8838;50.144;8.176;2023-09-19T00:04:53;16.00;99.90
17442;DHT22;8838;50.144;8.176;2023-09-19T00:07:19;15.90;99.90
17442;DHT22;8838;50.144;8.176;2023-09-19T00:09:47;15.90;99.90
17442;DHT22;8838;50.144;8.176;2023-09-19T00:12:13;15.80;99.90
17442;DHT22;8838;50.144;8.176;2023-09-19T00:14:40;15.80;99.90
17442;DHT22;8838;50.144;8.176;2023-09-19T00:17:13;15.80;99.90
17442;DHT22;8838;50.144;8.176;2023-09-19T00:19:41;15.80;99.90
17442;DHT22;8838;50.144;8.176;2023-09-19T00:22:09;15.80;99.90
17442;DHT22;8838;50.144;8.176;2023-09-19T00:24:36;15.70;99.90
17442;DHT22;8838;50.144;8.176;2023-09-19T00:27:03;15.70;99.90
17442;DHT22;8838;50.144;8.176;2023-09-19T00:29:31;15.60;99.90
17442;DHT22;8838;50.144;8.176;2023-09-19T00:31:58;15.70;99.90
17442;DHT22;8838;50.144;8.176;2023-09-19T00:34:27;15.70;99.90
17442;DHT22;8838;50.144;8.176;2023-09-19T00:36:55;15.70;99.90
17442;DHT22;8838;50.144;8.176;2023-09-19T00:39:22;15.70;99.90
17442;DHT22;8838;50.144;8.176;2023-09-19T00:41:51;15.70;99.90
17442;DHT22;8838;50.144;8.176;2023-09-19T00:44:18;15.60;99.90
17442;DHT22;8838;50.144;8.176;2023-09-19T00:46:46;15.60;99.90
17442;DHT22;8838;50.144;8.176;2023-09-19T00:49:15;15.60;99.90
17442;DHT22;8838;50.144;8.176;2023-09-19T00:51:44;15.60;99.90
17442;DHT22;8838;50.144;8.176;2023-09-19T00:54:13;15.60;99.90
17442;DHT22;8838;50.144;8.176;2023-09-19T00:56:44;15.60;99.90
17442;DHT22;8838;50.144;8.176;2023-09-19T00:59:11;15.60;99.90
17442;DHT22;8838;50.144;8.176;2023-09-19T01:01:39;15.50;99.90
17442;DHT22;8838;50.144;8.176;2023-09-19T01:04:06;15.50;99.90
17442;DHT22;8838;50.144;8.176;2023-09-19T01:06:33;15.50;99.90
17442;DHT22;8838;50.144;8.176;2023-09-19T01:09:03;15.40;99.90
17442;DHT22;8838;50.144;8.176;2023-09-19T01:11:35;15.20;99.90
17442;DHT22;8838;50.144;8.176;2023-09-19T01:14:15;15.20;99.90
17442;DHT22;8838;50.144;8.176;2023-09-19T01:16:53;15.20;99.90
17442;DHT22;8838;50.144;8.176;2023-09-19T01:19:55;15.20;99.90
17442;DHT22;8838;50.144;8.176;2023-09-19T01:22:35;15.20;99.90
17442;DHT22;8838;50.144;8.176;2023-09-19T01:25:49;15.20;99.90
17442;DHT22;8838;50.144;8.176;2023-09-19T01:28:30;15.20;99.90
17442;DHT22;8838;50.144;8.176;2023-09-19T01:31:04;15.20;99.90
17442;DHT22;8838;50.144;8.176;2023-09-19T01:33:56;15.10;99.90
17442;DHT22;8838;50.144;8.176;2023-09-19T01:36:25;15.10;99.90
17442;DHT22;8838;50.144;8.176;2023-09-19T01:38:54;15.00;99.90
17442;DHT22;8838;50.144;8.176;2023-09-19T01:41:29;14.90;99.90
17442;DHT22;8838;50.144;8.176;2023-09-19T01:44:00;15.00;99.90
17442;DHT22;8838;50.144;8.176;2023-09-19T01:46:34;15.00;99.90
17442;DHT22;8838;50.144;8.176;2023-09-19T01:49:08;15.00;99.90
17442;DHT22;8838;50.144;8.176;2023-09-19T01:51:44;14.90;99.90
17442;DHT22;8838;50.144;8.176;2023-09-19T01:54:18;14.90;99.90
17442;DHT22;8838;50.144;8.176;2023-09-19T01:56:50;14.90;99.90
17442;DHT22;8838;50.144;8.176;2023-09-19T01:59:24;14.80;99.90
17442;DHT22;8838;50.144;8.176;2023-09-19T02:01:55;14.90;99.90
17442;DHT22;8838;50.144;8.176;2023-09-19T02:04:22;14.80;99.90
17442;DHT22;8838;50.144;8.176;2023-09-19T02:06:49;14.80;99.90
17442;DHT22;8838;50.144;8.176;2023-09-19T02:09:17;14.80;99.90
17442;DHT22;8838;50.144;8.176;2023-09-19T02:11:44;14.80;99.90
17442;DHT22;8838;50.144;8.176;2023-09-19T02:14:12;14.70;99.90
17442;DHT22;8838;50.144;8.176;2023-09-19T02:16:40;14.70;99.90
17442;DHT22;8838;50.144;8.176;2023-09-19T02:19:08;14.60;99.90
17442;DHT22;8838;50.144;8.176;2023-09-19T02:21:35;14.70;99.90
17442;DHT22;8838;50.144;8.176;2023-09-19T02:24:02;14.60;99.90
17442;DHT22;8838;50.144;8.176;2023-09-19T02:26:29;14.50;99.90
17442;DHT22;8838;50.144;8.176;2023-09-19T02:28:56;14.50;99.90
17442;DHT22;8838;50.144;8.176;2023-09-19T02:31:23;14.50;99.90
17442;DHT22;8838;50.144;8.176;2023-09-19T02:33:49;14.40;99.90
17442;DHT22;8838;50.144;8.176;2023-09-19T02:36:18;14.40;99.90
17442;DHT22;8838;50.144;8.176;2023-09-19T02:38:45;14.50;99.90
17442;DHT22;8838;50.144;8.176;2023-09-19T02:41:12;14.50;99.90
17442;DHT22;8838;50.144;8.176;2023-09-19T02:43:39;14.40;99.90
17442;DHT22;8838;50.144;8.176;2023-09-19T02:46:06;14.30;99.90
17442;DHT22;8838;50.144;8.176;2023-09-19T02:48:32;14.30;99.90
17442;DHT22;8838;50.144;8.176;2023-09-19T02:51:00;14.30;99.90
17442;DHT22;8838;50.144;8.176;2023-09-19T02:53:28;14.30;99.90
17442;DHT22;8838;50.144;8.176;2023-09-19T02:55:56;14.30;99.90
17442;DHT22;8838;50.144;8.176;2023-09-19T02:58:24;14.20;99.90
17442;DHT22;8838;50.144;8.176;2023-09-19T03:00:53;14.20;99.90
17442;DHT22;8838;50.144;8.176;2023-09-19T03:03:20;14.20;99.90
17442;DHT22;8838;50.144;8.176;2023-09-19T03:05:50;14.10;99.90
17442;DHT22;8838;50.144;8.176;2023-09-19T03:08:18;14.00;99.90
17442;DHT22;8838;50.144;8.176;2023-09-19T03:10:47;14.10;99.90
17442;DHT22;8838;50.144;8.176;2023-09-19T03:13:14;14.10;99.90
17442;DHT22;8838;50.144;8.176;2023-09-19T03:15:41;14.10;99.90
17442;DHT22;8838;50.144;8.176;2023-09-19T03:18:09;14.10;99.90
17442;DHT22;8838;50.144;8.176;2023-09-19T03:20:36;14.00;99.90
17442;DHT22;8838;50.144;8.176;2023-09-19T03:23:04;13.80;99.90
17442;DHT22;8838;50.144;8.176;2023-09-19T03:25:34;13.80;99.90
17442;DHT22;8838;50.144;8.176;2023-09-19T03:28:03;13.80;99.90
17442;DHT22;8838;50.144;8.176;2023-09-19T03:30:34;13.70;99.90
17442;DHT22;8838;50.144;8.176;2023-09-19T03:33:01;13.70;99.90
17442;DHT22;8838;50.144;8.176;2023-09-19T03:35:27;13.70;99.90
17442;DHT22;8838;50.144;8.176;2023-09-19T03:37:54;13.70;99.90
17442;DHT22;8838;50.144;8.176;2023-09-19T03:40:22;13.70;99.90
17442;DHT22;8838;50.144;8.176;2023-09-19T03:42:49;13.70;99.90
17442;DHT22;8838;50.144;8.176;2023-09-19T03:45:17;13.60;99.90
17442;DHT22;8838;50.144;8.176;2023-09-19T03:47:44;13.60;99.90
17442;DHT22;8838;50.144;8.176;2023-09-19T03:50:12;13.60;99.90
17442;DHT22;8838;50.144;8.176;2023-09-19T03:52:42;13.60;99.90
17442;DHT22;8838;50.144;8.176;2023-09-19T03:55:09;13.60;99.90
17442;DHT22;8838;50.144;8.176;2023-09-19T03:57:36;13.70;99.90
17442;DHT22;8838;50.144;8.176;2023-09-19T04:00:04;13.70;99.90
17442;DHT22;8838;50.144;8.176;2023-09-19T04:02:37;13.70;99.90
17442;DHT22;8838;50.144;8.176;2023-09-19T04:05:05;13.80;99.90
17442;DHT22;8838;50.144;8.176;2023-09-19T04:07:32;13.70;99.90
17442;DHT22;8838;50.144;8.176;2023-09-19T04:09:59;13.70;99.90
17442;DHT22;8838;50.144;8.176;2023-09-19T04:12:26;13.80;99.90
17442;DHT22;8838;50.144;8.176;2023-09-19T04:14:53;13.90;99.90
17442;DHT22;8838;50.144;8.176;2023-09-19T04:17:21;13.90;99.90
17442;DHT22;8838;50.144;8.176;2023-09-19T04:19:50;14.00;99.90
17442;DHT22;8838;50.144;8.176;2023-09-19T04:22:17;14.00;99.90
17442;DHT22;8838;50.144;8.176;2023-09-19T04:24:43;13.90;99.90
17442;DHT22;8838;50.144;8.176;2023-09-19T04:27:10;13.80;99.90
17442;DHT22;8838;50.144;8.176;2023-09-19T04:29:38;13.70;99.90
17442;DHT22;8838;50.144;8.176;2023-09-19T04:32:05;13.70;99.90
17442;DHT22;8838;50.144;8.176;2023-09-19T04:34:33;13.60;99.90
17442;DHT22;8838;50.144;8.176;2023-09-19T04:37:01;13.60;99.90
17442;DHT22;8838;50.144;8.176;2023-09-19T04:39:29;13.60;99.90
17442;DHT22;8838;50.144;8.176;2023-09-19T04:41:56;13.70;99.90
17442;DHT22;8838;50.144;8.176;2023-09-19T04:44:23;13.60;99.90
17442;DHT22;8838;50.144;8.176;2023-09-19T04:46:50;13.70;99.90
17442;DHT22;8838;50.144;8.176;2023-09-19T04:49:17;13.80;99.90
17442;DHT22;8838;50.144;8.176;2023-09-19T04:51:47;13.80;99.90
17442;DHT22;8838;50.144;8.176;2023-09-19T04:54:15;13.70;99.90
17442;DHT22;8838;50.144;8.176;2023-09-19T04:56:43;13.70;99.90
17442;DHT22;8838;50.144;8.176;2023-09-19T04:59:10;13.60;99.90
17442;DHT22;8838;50.144;8.176;2023-09-19T05:01:37;13.70;99.90
17442;DHT22;8838;50.144;8.176;2023-09-19T05:04:04;13.70;99.90
17442;DHT22;8838;50.144;8.176;2023-09-19T05:06:31;13.70;99.90
17442;DHT22;8838;50.144;8.176;2023-09-19T05:08:59;13.60;99.90
17442;DHT22;8838;50.144;8.176;2023-09-19T05:11:27;13.60;99.90
17442;DHT22;8838;50.144;8.176;2023-09-19T05:13:55;13.60;99.90
17442;DHT22;8838;50.144;8.176;2023-09-19T05:16:22;13.60;99.90
17442;DHT22;8838;50.144;8.176;2023-09-19T05:18:52;13.60;99.90
17442;DHT22;8838;50.144;8.176;2023-09-19T05:21:18;13.60;99.90
17442;DHT22;8838;50.144;8.176;2023-09-19T05:23:45;13.60;99.90
17442;DHT22;8838;50.144;8.176;2023-09-19T05:26:13;13.60;99.90
17442;DHT22;8838;50.144;8.176;2023-09-19T05:28:43;13.60;99.90
17442;DHT22;8838;50.144;8.176;2023-09-19T05:31:09;13.60;99.90
17442;DHT22;8838;50.144;8.176;2023-09-19T05:33:36;13.60;99.90
17442;DHT22;8838;50.144;8.176;2023-09-19T05:36:03;13.70;99.90
17442;DHT22;8838;50.144;8.176;2023-09-19T05:38:30;13.70;99.90
17442;DHT22;8838;50.144;8.176;2023-09-19T05:40:58;13.60;99.90
17442;DHT22;8838;50.144;8.176;2023-09-19T05:43:27;13.60;99.90
17442;DHT22;8838;50.144;8.176;2023-09-19T05:45:55;13.60;99.90
17442;DHT22;8838;50.144;8.176;2023-09-19T05:48:22;13.70;99.90
17442;DHT22;8838;50.144;8.176;2023-09-19T05:50:49;13.70;99.90
17442;DHT22;8838;50.144;8.176;2023-09-19T05:53:16;13.70;99.90
17442;DHT22;8838;50.144;8.176;2023-09-19T05:55:44;13.70;99.90
17442;DHT22;8838;50.144;8.176;2023-09-19T05:58:11;13.70;99.90
17442;DHT22;8838;50.144;8.176;2023-09-19T06:00:39;13.70;99.90
17442;DHT22;8838;50.144;8.176;2023-09-19T06:03:12;13.80;99.90
17442;DHT22;8838;50.144;8.176;2023-09-19T06:05:40;13.80;99.90
17442;DHT22;8838;50.144;8.176;2023-09-19T06:08:07;13.90;99.90
17442;DHT22;8838;50.144;8.176;2023-09-19T06:10:35;13.90;99.90
17442;DHT22;8838;50.144;8.176;2023-09-19T06:13:02;13.90;99.90
17442;DHT22;8838;50.144;8.176;2023-09-19T06:15:31;13.90;99.90
17442;DHT22;8838;50.144;8.176;2023-09-19T06:17:59;14.00;99.90
17442;DHT22;8838;50.144;8.176;2023-09-19T06:20:32;14.00;99.90
17442;DHT22;8838;50.144;8.176;2023-09-19T06:22:59;14.00;99.90
17442;DHT22;8838;50.144;8.176;2023-09-19T06:25:27;14.10;99.90
17442;DHT22;8838;50.144;8.176;2023-09-19T06:27:54;14.10;99.90
17442;DHT22;8838;50.144;8.176;2023-09-19T06:30:23;14.10;99.90
17442;DHT22;8838;50.144;8.176;2023-09-19T06:32:55;14.20;99.90
17442;DHT22;8838;50.144;8.176;2023-09-19T06:35:22;14.30;99.90
17442;DHT22;8838;50.144;8.176;2023-09-19T06:37:50;14.30;99.90
17442;DHT22;8838;50.144;8.176;2023-09-19T06:40:18;14.50;99.90
17442;DHT22;8838;50.144;8.176;2023-09-19T06:42:49;14.50;99.90
17442;DHT22;8838;50.144;8.176;2023-09-19T06:45:16;14.50;99.90
17442;DHT22;8838;50.144;8.176;2023-09-19T06:47:44;14.50;99.90
17442;DHT22;8838;50.144;8.176;2023-09-19T06:50:11;14.50;99.90
17442;DHT22;8838;50.144;8.176;2023-09-19T06:52:40;14.50;99.90
17442;DHT22;8838;50.144;8.176;2023-09-19T06:55:08;14.50;99.90
17442;DHT22;8838;50.144;8.176;2023-09-19T06:57:37;14.50;99.90
17442;DHT22;8838;50.144;8.176;2023-09-19T07:00:07;14.50;99.90
17442;DHT22;8838;50.144;8.176;2023-09-19T07:02:40;14.60;99.90
17442;DHT22;8838;50.144;8.176;2023-09-19T07:05:07;14.60;99.90
17442;DHT22;8838;50.144;8.176;2023-09-19T07:07:33;14.70;99.90
17442;DHT22;8838;50.144;8.176;2023-09-19T07:10:00;14.70;99.90
17442;DHT22;8838;50.144;8.176;2023-09-19T07:12:28;14.70;99.90
17442;DHT22;8838;50.144;8.176;2023-09-19T07:14:55;14.70;99.90
17442;DHT22;8838;50.144;8.176;2023-09-19T07:17:22;14.70;99.90
17442;DHT22;8838;50.144;8.176;2023-09-19T07:19:49;14.70;99.90
17442;DHT22;8838;50.144;8.176;2023-09-19T07:22:16;14.80;99.90
17442;DHT22;8838;50.144;8.176;2023-09-19T07:24:43;14.80;99.90
17442;DHT22;8838;50.144;8.176;2023-09-19T07:27:09;14.90;99.90
17442;DHT22;8838;50.144;8.176;2023-09-19T07:29:38;14.80;99.90
17442;DHT22;8838;50.144;8.176;2023-09-19T07:32:05;14.90;99.90
17442;DHT22;8838;50.144;8.176;2023-09-19T07:34:32;15.00;99.90
17442;DHT22;8838;50.144;8.176;2023-09-19T07:36:59;15.00;99.90
17442;DHT22;8838;50.144;8.176;2023-09-19T07:39:26;15.00;99.90
17442;DHT22;8838;50.144;8.176;2023-09-19T07:41:53;15.00;99.90
17442;DHT22;8838;50.144;8.176;2023-09-19T07:44:19;15.00;99.90
17442;DHT22;8838;50.144;8.176;2023-09-19T07:46:48;15.20;99.90
17442;DHT22;8838;50.144;8.176;2023-09-19T07:49:16;15.20;99.90
17442;DHT22;8838;50.144;8.176;2023-09-19T07:51:44;15.20;99.90
17442;DHT22;8838;50.144;8.176;2023-09-19T07:54:12;15.30;99.90
17442;DHT22;8838;50.144;8.176;2023-09-19T07:56:40;15.50;99.90
17442;DHT22;8838;50.144;8.176;2023-09-19T07:59:07;15.50;99.90
17442;DHT22;8838;50.144;8.176;2023-09-19T08:01:33;15.70;99.90
17442;DHT22;8838;50.144;8.176;2023-09-19T08:04:02;15.80;99.90
17442;DHT22;8838;50.144;8.176;2023-09-19T08:06:29;15.80;99.90
17442;DHT22;8838;50.144;8.176;2023-09-19T08:08:56;16.00;99.90
17442;DHT22;8838;50.144;8.176;2023-09-19T08:11:26;16.40;99.90
17442;DHT22;8838;50.144;8.176;2023-09-19T08:13:56;16.60;99.90
17442;DHT22;8838;50.144;8.176;2023-09-19T08:16:23;16.50;99.90
17442;DHT22;8838;50.144;8.176;2023-09-19T08:18:50;16.60;99.90
17442;DHT22;8838;50.144;8.176;2023-09-19T08:21:22;16.90;99.90
17442;DHT22;8838;50.144;8.176;2023-09-19T08:23:49;17.10;99.90
17442;DHT22;8838;50.144;8.176;2023-09-19T08:26:16;17.40;99.90
17442;DHT22;8838;50.144;8.176;2023-09-19T08:28:43;17.30;99.90
17442;DHT22;8838;50.144;8.176;2023-09-19T08:31:10;17.10;99.90
17442;DHT22;8838;50.144;8.176;2023-09-19T08:33:37;17.20;99.90
17442;DHT22;8838;50.144;8.176;2023-09-19T08:36:08;17.20;99.90
17442;DHT22;8838;50.144;8.176;2023-09-19T08:38:37;17.00;99.90
17442;DHT22;8838;50.144;8.176;2023-09-19T08:41:06;17.00;99.90
17442;DHT22;8838;50.144;8.176;2023-09-19T08:43:33;16.90;99.90
17442;DHT22;8838;50.144;8.176;2023-09-19T08:46:06;17.10;99.90
17442;DHT22;8838;50.144;8.176;2023-09-19T08:48:39;17.10;99.90
17442;DHT22;8838;50.144;8.176;2023-09-19T08:51:07;17.40;99.90
17442;DHT22;8838;50.144;8.176;2023-09-19T08:53:41;17.50;99.90
17442;DHT22;8838;50.144;8.176;2023-09-19T08:56:12;17.80;99.90
17442;DHT22;8838;50.144;8.176;2023-09-19T08:58:45;17.90;99.90
17442;DHT22;8838;50.144;8.176;2023-09-19T09:01:15;17.90;99.90
17442;DHT22;8838;50.144;8.176;2023-09-19T09:03:43;17.90;99.90
17442;DHT22;8838;50.144;8.176;2023-09-19T09:06:14;17.80;99.90
17442;DHT22;8838;50.144;8.176;2023-09-19T09:08:43;17.90;99.90
17442;DHT22;8838;50.144;8.176;2023-09-19T09:11:11;18.00;99.90
17442;DHT22;8838;50.144;8.176;2023-09-19T09:13:38;18.20;99.90
17442;DHT22;8838;50.144;8.176;2023-09-19T09:16:07;18.20;99.90
17442;DHT22;8838;50.144;8.176;2023-09-19T09:18:34;18.50;99.90
17442;DHT22;8838;50.144;8.176;2023-09-19T09:21:01;18.70;99.90
17442;DHT22;8838;50.144;8.176;2023-09-19T09:23:30;19.00;99.90
17442;DHT22;8838;50.144;8.176;2023-09-19T09:26:00;19.00;99.90
17442;DHT22;8838;50.144;8.176;2023-09-19T09:28:30;18.90;99.90
17442;DHT22;8838;50.144;8.176;2023-09-19T09:30:59;19.20;99.90
17442;DHT22;8838;50.144;8.176;2023-09-19T09:33:26;19.20;99.90
17442;DHT22;8838;50.144;8.176;2023-09-19T09:35:55;19.00;99.90
17442;DHT22;8838;50.144;8.176;2023-09-19T09:38:27;18.80;99.90
17442;DHT22;8838;50.144;8.176;2023-09-19T09:40:55;18.80;99.90
17442;DHT22;8838;50.144;8.176;2023-09-19T09:43:29;18.70;99.90
17442;DHT22;8838;50.144;8.176;2023-09-19T09:46:11;18.60;99.90
17442;DHT22;8838;50.144;8.176;2023-09-19T09:49:00;18.70;99.90
17442;DHT22;8838;50.144;8.176;2023-09-19T09:51:46;18.90;99.90
17442;DHT22;8838;50.144;8.176;2023-09-19T09:54:23;19.20;99.90
17442;DHT22;8838;50.144;8.176;2023-09-19T09:56:54;19.50;99.90
17442;DHT22;8838;50.144;8.176;2023-09-19T09:59:44;20.20;99.90
17442;DHT22;8838;50.144;8.176;2023-09-19T10:02:11;20.40;99.90
17442;DHT22;8838;50.144;8.176;2023-09-19T10:04:42;20.30;99.90
17442;DHT22;8838;50.144;8.176;2023-09-19T10:07:27;20.10;99.90
17442;DHT22;8838;50.144;8.176;2023-09-19T10:09:59;19.90;99.90
17442;DHT22;8838;50.144;8.176;2023-09-19T10:12:38;20.10;99.90
17442;DHT22;8838;50.144;8.176;2023-09-19T10:15:08;20.30;99.90
17442;DHT22;8838;50.144;8.176;2023-09-19T10:17:42;20.30;99.90
17442;DHT22;8838;50.144;8.176;2023-09-19T10:20:12;20.60;99.90
17442;DHT22;8838;50.144;8.176;2023-09-19T10:22:59;20.60;99.90
17442;DHT22;8838;50.144;8.176;2023-09-19T10:25:27;20.90;99.90
17442;DHT22;8838;50.144;8.176;2023-09-19T10:27:57;20.80;99.90
17442;DHT22;8838;50.144;8.176;2023-09-19T10:30:31;20.40;99.90
17442;DHT22;8838;50.144;8.176;2023-09-19T10:33:01;20.20;99.90
17442;DHT22;8838;50.144;8.176;2023-09-19T10:35:29;20.70;99.90
17442;DHT22;8838;50.144;8.176;2023-09-19T10:37:59;21.20;99.90
17442;DHT22;8838;50.144;8.176;2023-09-19T10:40:28;20.70;99.90
17442;DHT22;8838;50.144;8.176;2023-09-19T10:43:02;20.10;99.90
17442;DHT22;8838;50.144;8.176;2023-09-19T10:45:33;19.40;99.90
17442;DHT22;8838;50.144;8.176;2023-09-19T10:48:01;19.90;99.90
17442;DHT22;8838;50.144;8.176;2023-09-19T10:50:33;20.20;99.90
17442;DHT22;8838;50.144;8.176;2023-09-19T10:53:02;20.40;99.90
17442;DHT22;8838;50.144;8.176;2023-09-19T10:55:34;21.00;99.90
17442;DHT22;8838;50.144;8.176;2023-09-19T10:58:02;21.00;99.90
17442;DHT22;8838;50.144;8.176;2023-09-19T11:00:53;20.90;99.90
17442;DHT22;8838;50.144;8.176;2023-09-19T11:03:21;20.50;99.90
17442;DHT22;8838;50.144;8.176;2023-09-19T11:06:09;20.70;99.90
17442;DHT22;8838;50.144;8.176;2023-09-19T11:08:52;21.20;99.90
17442;DHT22;8838;50.144;8.176;2023-09-19T11:11:45;21.40;99.90
17442;DHT22;8838;50.144;8.176;2023-09-19T11:14:40;22.30;99.90
17442;DHT22;8838;50.144;8.176;2023-09-19T11:17:40;23.10;99.90
17442;DHT22;8838;50.144;8.176;2023-09-19T11:20:23;22.90;99.90
17442;DHT22;8838;50.144;8.176;2023-09-19T11:23:24;22.80;99.90
17442;DHT22;8838;50.144;8.176;2023-09-19T11:25:52;23.10;99.90
17442;DHT22;8838;50.144;8.176;2023-09-19T11:28:35;22.50;99.90
17442;DHT22;8838;50.144;8.176;2023-09-19T11:34:49;21.80;99.90
17442;DHT22;8838;50.144;8.176;2023-09-19T11:40:44;22.40;99.90
17442;DHT22;8838;50.144;8.176;2023-09-19T11:43:30;22.30;99.90
17442;DHT22;8838;50.144;8.176;2023-09-19T11:46:05;22.00;99.90
17442;DHT22;8838;50.144;8.176;2023-09-19T11:48:38;22.10;99.90
17442;DHT22;8838;50.144;8.176;2023-09-19T11:51:15;21.80;99.90
17442;DHT22;8838;50.144;8.176;2023-09-19T11:53:48;21.50;99.90
17442;DHT22;8838;50.144;8.176;2023-09-19T11:56:16;21.00;99.90
17442;DHT22;8838;50.144;8.176;2023-09-19T11:58:52;20.90;99.90
17442;DHT22;8838;50.144;8.176;2023-09-19T12:01:25;20.80;99.90
17442;DHT22;8838;50.144;8.176;2023-09-19T12:03:55;21.30;99.90
17442;DHT22;8838;50.144;8.176;2023-09-19T12:09:31;20.90;99.90
17442;DHT22;8838;50.144;8.176;2023-09-19T12:12:07;20.60;99.90
17442;DHT22;8838;50.144;8.176;2023-09-19T12:14:36;20.80;99.90
17442;DHT22;8838;50.144;8.176;2023-09-19T12:17:06;21.00;99.90
17442;DHT22;8838;50.144;8.176;2023-09-19T12:19:35;20.90;99.90
17442;DHT22;8838;50.144;8.176;2023-09-19T12:22:05;20.90;99.90
17442;DHT22;8838;50.144;8.176;2023-09-19T12:24:34;21.00;99.90
17442;DHT22;8838;50.144;8.176;2023-09-19T12:27:07;21.00;99.90
17442;DHT22;8838;50.144;8.176;2023-09-19T12:29:45;21.00;99.90
17442;DHT22;8838;50.144;8.176;2023-09-19T12:32:14;21.00;99.90
17442;DHT22;8838;50.144;8.176;2023-09-19T12:34:45;21.00;99.90
17442;DHT22;8838;50.144;8.176;2023-09-19T12:37:19;21.30;99.90
17442;DHT22;8838;50.144;8.176;2023-09-19T12:39:48;21.70;99.90
17442;DHT22;8838;50.144;8.176;2023-09-19T12:42:17;22.00;99.90
17442;DHT22;8838;50.144;8.176;2023-09-19T12:44:46;21.90;99.90
17442;DHT22;8838;50.144;8.176;2023-09-19T12:47:20;21.50;99.90
17442;DHT22;8838;50.144;8.176;2023-09-19T12:50:09;21.30;99.90
17442;DHT22;8838;50.144;8.176;2023-09-19T12:52:43;21.20;99.90
17442;DHT22;8838;50.144;8.176;2023-09-19T12:55:29;21.20;99.90
17442;DHT22;8838;50.144;8.176;2023-09-19T12:58:14;21.40;99.90
17442;DHT22;8838;50.144;8.176;2023-09-19T13:00:47;21.20;99.90
17442;DHT22;8838;50.144;8.176;2023-09-19T13:03:18;21.40;99.90
17442;DHT22;8838;50.144;8.176;2023-09-19T13:05:51;21.70;99.90
17442;DHT22;8838;50.144;8.176;2023-09-19T13:08:27;21.90;99.90
17442;DHT22;8838;50.144;8.176;2023-09-19T13:11:04;21.70;99.90
17442;DHT22;8838;50.144;8.176;2023-09-19T13:13:38;21.40;99.90
17442;DHT22;8838;50.144;8.176;2023-09-19T13:16:07;21.30;99.90
17442;DHT22;8838;50.144;8.176;2023-09-19T13:18:44;21.20;99.90
17442;DHT22;8838;50.144;8.176;2023-09-19T13:21:13;21.00;99.90
17442;DHT22;8838;50.144;8.176;2023-09-19T13:23:53;20.70;99.90
17442;DHT22;8838;50.144;8.176;2023-09-19T13:26:24;20.50;99.90
17442;DHT22;8838;50.144;8.176;2023-09-19T13:28:51;20.40;99.90
17442;DHT22;8838;50.144;8.176;2023-09-19T13:31:18;20.70;99.90
17442;DHT22;8838;50.144;8.176;2023-09-19T13:33:45;20.70;99.90
17442;DHT22;8838;50.144;8.176;2023-09-19T13:36:12;20.80;99.90
17442;DHT22;8838;50.144;8.176;2023-09-19T13:38:40;21.20;99.90
17442;DHT22;8838;50.144;8.176;2023-09-19T13:41:10;21.50;99.90
17442;DHT22;8838;50.144;8.176;2023-09-19T13:43:40;21.70;99.90
17442;DHT22;8838;50.144;8.176;2023-09-19T13:46:07;21.70;99.90
17442;DHT22;8838;50.144;8.176;2023-09-19T13:48:37;21.80;99.90
17442;DHT22;8838;50.144;8.176;2023-09-19T13:51:04;21.60;99.90
17442;DHT22;8838;50.144;8.176;2023-09-19T13:53:31;21.60;99.90
17442;DHT22;8838;50.144;8.176;2023-09-19T13:56:27;21.80;99.90
17442;DHT22;8838;50.144;8.176;2023-09-19T13:59:18;21.80;99.90
17442;DHT22;8838;50.144;8.176;2023-09-19T14:01:45;22.00;99.90
17442;DHT22;8838;50.144;8.176;2023-09-19T14:04:12;22.00;99.90
17442;DHT22;8838;50.144;8.176;2023-09-19T14:06:43;21.60;99.90
17442;DHT22;8838;50.144;8.176;2023-09-19T14:09:11;21.20;99.90
17442;DHT22;8838;50.144;8.176;2023-09-19T14:11:40;21.00;99.90
17442;DHT22;8838;50.144;8.176;2023-09-19T14:14:07;21.00;99.90
17442;DHT22;8838;50.144;8.176;2023-09-19T14:16:34;21.20;99.90
17442;DHT22;8838;50.144;8.176;2023-09-19T14:19:02;21.40;99.90
17442;DHT22;8838;50.144;8.176;2023-09-19T14:21:29;21.50;99.90
17442;DHT22;8838;50.144;8.176;2023-09-19T14:23:56;21.40;99.90
17442;DHT22;8838;50.144;8.176;2023-09-19T14:26:23;21.30;99.90
17442;DHT22;8838;50.144;8.176;2023-09-19T14:28:51;21.40;99.90
17442;DHT22;8838;50.144;8.176;2023-09-19T14:31:18;21.70;99.90
17442;DHT22;8838;50.144;8.176;2023-09-19T14:33:45;21.80;99.90
17442;DHT22;8838;50.144;8.176;2023-09-19T14:36:22;21.70;99.90
17442;DHT22;8838;50.144;8.176;2023-09-19T14:38:53;21.90;99.90
17442;DHT22;8838;50.144;8.176;2023-09-19T14:41:21;21.90;99.90
17442;DHT22;8838;50.144;8.176;2023-09-19T14:43:48;21.90;99.90
17442;DHT22;8838;50.144;8.176;2023-09-19T14:46:17;21.90;99.90
17442;DHT22;8838;50.144;8.176;2023-09-19T14:48:45;21.70;99.90
17442;DHT22;8838;50.144;8.176;2023-09-19T14:51:13;21.30;99.90
17442;DHT22;8838;50.144;8.176;2023-09-19T14:53:40;21.30;99.90
17442;DHT22;8838;50.144;8.176;2023-09-19T14:56:09;21.30;99.90
17442;DHT22;8838;50.144;8.176;2023-09-19T14:58:37;21.30;99.90
17442;DHT22;8838;50.144;8.176;2023-09-19T15:01:06;21.40;99.90
17442;DHT22;8838;50.144;8.176;2023-09-19T15:03:35;21.40;99.90
17442;DHT22;8838;50.144;8.176;2023-09-19T15:06:02;21.40;99.90
17442;DHT22;8838;50.144;8.176;2023-09-19T15:08:30;21.40;99.90
17442;DHT22;8838;50.144;8.176;2023-09-19T15:10:57;21.50;99.90
17442;DHT22;8838;50.144;8.176;2023-09-19T15:13:29;21.80;99.90
17442;DHT22;8838;50.144;8.176;2023-09-19T15:15:59;21.60;99.90
17442;DHT22;8838;50.144;8.176;2023-09-19T15:18:26;21.40;99.90
17442;DHT22;8838;50.144;8.176;2023-09-19T15:21:06;21.40;99.90
17442;DHT22;8838;50.144;8.176;2023-09-19T15:26:26;21.50;99.90
17442;DHT22;8838;50.144;8.176;2023-09-19T15:28:55;21.40;99.90
17442;DHT22;8838;50.144;8.176;2023-09-19T15:31:22;21.50;99.90
17442;DHT22;8838;50.144;8.176;2023-09-19T15:33:51;21.30;99.90
17442;DHT22;8838;50.144;8.176;2023-09-19T15:36:21;21.20;99.90
17442;DHT22;8838;50.144;8.176;2023-09-19T15:39:01;21.10;99.90
17442;DHT22;8838;50.144;8.176;2023-09-19T15:41:31;21.20;99.90
17442;DHT22;8838;50.144;8.176;2023-09-19T15:43:59;21.20;99.90
17442;DHT22;8838;50.144;8.176;2023-09-19T15:46:29;21.30;99.90
17442;DHT22;8838;50.144;8.176;2023-09-19T15:48:59;21.20;99.90
17442;DHT22;8838;50.144;8.176;2023-09-19T15:51:27;21.00;99.90
17442;DHT22;8838;50.144;8.176;2023-09-19T15:54:09;20.90;99.90
17442;DHT22;8838;50.144;8.176;2023-09-19T15:56:38;20.50;99.90
17442;DHT22;8838;50.144;8.176;2023-09-19T15:59:09;20.40;99.90
17442;DHT22;8838;50.144;8.176;2023-09-19T16:01:38;20.20;99.90
17442;DHT22;8838;50.144;8.176;2023-09-19T16:04:07;20.20;99.90
17442;DHT22;8838;50.144;8.176;2023-09-19T16:06:41;20.00;99.90
17442;DHT22;8838;50.144;8.176;2023-09-19T16:09:08;19.70;99.90
17442;DHT22;8838;50.144;8.176;2023-09-19T16:11:36;19.70;99.90
17442;DHT22;8838;50.144;8.176;2023-09-19T16:14:06;19.70;99.90
17442;DHT22;8838;50.144;8.176;2023-09-19T16:16:35;19.60;99.90
17442;DHT22;8838;50.144;8.176;2023-09-19T16:19:06;19.50;99.90